Time;durP1;ratioP1;P1;durP2;ratioP2;P2;SDS_P1;SDS_P2;PMS_P1;PMS_P2;Temp;Humidity;BMP_temperature;BMP_pressure;BME280_temperature;BME280_humidity;BME280_pressure;Samples;Min_cycle;Max_cycle;Signal;HPM_P1;HPM_P2
2023/03/15 00:00:48;;;;;;;4.33;1.10;;;0.90;99.90;0.50;99780.00;;;;4914509;28;87214;-69
2023/03/15 00:03:14;;;;;;;9.07;1.00;;;0.80;99.90;0.50;99781.00;;;;4888837;28;87825;-69
2023/03/15 00:05:45;;;;;;;2.67;0.93;;;0.90;99.90;0.50;99797.00;;;;4895762;28;87738;-69
2023/03/15 00:08:11;;;;;;;9.10;0.87;;;0.80;99.90;0.50;99794.00;;;;4896415;28;111360;-67
2023/03/15 00:10:41;;;;;;;3.67;0.93;;;0.70;99.90;0.50;99790.00;;;;4897926;28;88919;-67
2023/03/15 00:13:08;;;;;;;2.30;1.40;;;0.90;99.90;0.50;99788.00;;;;4890725;28;88119;-69
2023/03/15 00:15:34;;;;;;;1.53;0.83;;;0.70;99.90;0.40;99794.00;;;;4896789;28;87989;-68
2023/03/15 00:18:02;;;;;;;1.27;0.73;;;0.70;99.90;0.40;99798.00;;;;4913898;28;93638;-67
2023/03/15 00:20:28;;;;;;;0.60;0.60;;;0.70;99.90;0.40;99805.00;;;;4910615;28;87733;-69
2023/03/15 00:22:54;;;;;;;1.67;0.80;;;0.70;99.90;0.40;99825.00;;;;4891661;28;88095;-68
2023/03/15 00:25:20;;;;;;;2.00;1.20;;;0.70;99.90;0.40;99820.00;;;;4895815;28;88720;-69
2023/03/15 00:27:46;;;;;;;4.40;1.50;;;0.70;99.90;0.40;99819.00;;;;4895381;28;118422;-67
2023/03/15 00:30:12;;;;;;;2.10;0.73;;;0.80;99.90;0.40;99823.00;;;;4899865;28;115987;-69
2023/03/15 00:32:37;;;;;;;3.83;1.03;;;0.80;99.90;0.30;99818.00;;;;4901700;28;100884;-69
2023/03/15 00:35:03;;;;;;;4.40;1.40;;;0.70;99.90;0.30;99824.00;;;;4898831;28;108890;-69
2023/03/15 00:37:30;;;;;;;2.90;1.10;;;0.70;99.90;0.30;99828.00;;;;4900955;28;103476;-68
2023/03/15 00:39:56;;;;;;;0.93;0.53;;;0.70;99.90;0.40;99830.00;;;;4906646;28;94430;-69
2023/03/15 00:42:26;;;;;;;3.13;1.30;;;0.70;99.90;0.30;99832.00;;;;4898988;28;110515;-70
2023/03/15 00:44:52;;;;;;;1.37;1.13;;;0.70;99.90;0.30;99834.00;;;;4898315;28;87866;-70
2023/03/15 00:47:18;;;;;;;5.10;0.87;;;0.60;99.90;0.30;99835.00;;;;4898771;28;87947;-70
2023/03/15 00:49:44;;;;;;;0.87;0.70;;;0.60;99.90;0.30;99836.00;;;;4897612;28;116678;-69
2023/03/15 00:52:11;;;;;;;5.27;0.87;;;0.60;99.90;0.30;99834.00;;;;4901031;28;87878;-70
2023/03/15 00:54:37;;;;;;;1.70;0.97;;;0.60;99.90;0.30;99837.00;;;;4903098;28;88057;-70
2023/03/15 00:57:02;;;;;;;0.73;0.60;;;0.60;99.90;0.30;99851.00;;;;4900416;28;119824;-69
2023/03/15 00:59:34;;;;;;;2.43;0.40;;;0.60;99.90;0.20;99845.00;;;;4910245;28;96942;-68
2023/03/15 01:02:05;;;;;;;1.37;0.97;;;0.60;99.90;0.20;99854.00;;;;4901680;28;87975;-68
2023/03/15 01:04:31;;;;;;;2.57;1.33;;;0.50;99.90;0.20;99838.00;;;;4916335;28;87998;-67
2023/03/15 01:06:57;;;;;;;1.67;1.00;;;0.60;99.90;0.20;99847.00;;;;4900253;28;117090;-71
2023/03/15 01:09:24;;;;;;;2.63;1.20;;;0.60;99.90;0.20;99843.00;;;;4897377;28;88644;-71
2023/03/15 01:11:50;;;;;;;1.17;0.50;;;0.50;99.90;0.20;99858.00;;;;4900866;28;110496;-69
2023/03/15 01:14:17;;;;;;;4.37;1.23;;;0.50;99.90;0.10;99851.00;;;;4902487;28;87203;-71
2023/03/15 01:16:44;;;;;;;4.37;1.00;;;0.30;99.90;0.10;99850.00;;;;4910910;28;88482;-71
2023/03/15 01:19:11;;;;;;;1.53;0.90;;;0.40;99.90;0.10;99857.00;;;;4897363;28;94919;-71
2023/03/15 01:21:38;;;;;;;4.67;1.23;;;0.40;99.90;0.00;99860.00;;;;4898189;28;102401;-69
2023/03/15 01:24:22;;;;;;;3.97;0.90;;;0.40;99.90;0.00;99863.00;;;;4900670;28;87795;-69
2023/03/15 01:26:47;;;;;;;2.17;0.70;;;0.40;99.90;0.00;99874.00;;;;4899431;28;114316;-71
2023/03/15 01:29:14;;;;;;;6.23;0.70;;;0.40;99.90;0.00;99852.00;;;;4898051;28;117882;-69
2023/03/15 01:31:39;;;;;;;6.87;1.73;;;0.40;99.90;0.00;99868.00;;;;4902298;28;87910;-68
2023/03/15 01:34:05;;;;;;;5.17;1.33;;;0.40;99.90;0.00;99874.00;;;;4897443;28;87874;-70
2023/03/15 01:36:31;;;;;;;3.27;1.13;;;0.30;99.90;0.00;99875.00;;;;4911482;28;88825;-69
2023/03/15 01:38:56;;;;;;;1.47;0.93;;;0.30;99.90;0.00;99877.00;;;;4900147;28;117346;-70
2023/03/15 01:41:24;;;;;;;0.90;0.67;;;1.00;99.90;0.00;99882.00;;;;4898358;28;87821;-71
2023/03/15 01:43:50;;;;;;;4.23;1.43;;;0.30;99.90;-0.10;99883.00;;;;4896222;28;88205;-71
2023/03/15 01:46:22;;;;;;;3.93;0.93;;;0.30;99.90;0.00;99894.00;;;;4899625;28;106947;-71
2023/03/15 01:49:16;;;;;;;1.47;1.33;;;0.30;99.90;-0.10;99885.00;;;;4894792;28;87924;-71
2023/03/15 01:52:12;;;;;;;3.17;0.90;;;-0.50;99.90;-0.10;99886.00;;;;4915114;28;87862;-71
2023/03/15 01:54:53;;;;;;;0.53;0.47;;;0.50;99.90;-0.10;99896.00;;;;4912116;28;95532;-72
2023/03/15 01:57:35;;;;;;;3.80;1.17;;;0.90;99.90;-0.10;99895.00;;;;4894931;28;88577;-71
2023/03/15 02:00:18;;;;;;;2.27;1.23;;;0.30;99.90;-0.20;99896.00;;;;4912301;28;88728;-71
2023/03/15 02:03:13;;;;;;;1.40;0.70;;;0.20;99.90;-0.20;99887.00;;;;4892797;28;87741;-70
2023/03/15 02:05:44;;;;;;;4.30;1.27;;;0.20;99.90;-0.20;99892.00;;;;4892553;28;87086;-71
2023/03/15 02:08:12;;;;;;;2.73;0.80;;;0.20;99.90;-0.30;99890.00;;;;4899863;28;88119;-71
2023/03/15 02:10:48;;;;;;;4.97;1.03;;;0.00;99.90;-0.30;99894.00;;;;4897483;28;88184;-71
2023/03/15 02:13:18;;;;;;;4.53;1.43;;;0.10;99.90;-0.40;99888.00;;;;4911747;28;98389;-70
2023/03/15 02:15:45;;;;;;;2.20;1.07;;;0.00;99.90;-0.40;99891.00;;;;4897013;28;88118;-71
2023/03/15 02:18:12;;;;;;;11.00;1.33;;;-0.10;99.90;-0.50;99897.00;;;;4897342;28;88727;-71
2023/03/15 02:21:00;;;;;;;2.10;0.90;;;0.00;99.90;-0.60;99891.00;;;;4900659;28;95548;-72
2023/03/15 02:23:27;;;;;;;2.10;1.10;;;-0.10;99.90;-0.60;99897.00;;;;4913635;28;87903;-70
2023/03/15 02:26:08;;;;;;;0.93;0.73;;;-0.20;99.90;-0.70;99905.00;;;;4898624;28;100413;-71
2023/03/15 02:28:34;;;;;;;2.73;1.23;;;-0.20;99.90;-0.70;99901.00;;;;4913290;28;89989;-70
2023/03/15 02:31:00;;;;;;;3.03;1.17;;;-0.30;99.90;-0.70;99901.00;;;;4902672;28;117630;-71
2023/03/15 02:33:35;;;;;;;1.20;1.10;;;-0.30;99.90;-0.70;99911.00;;;;4906064;28;90767;-71
2023/03/15 02:36:27;;;;;;;1.53;0.80;;;-0.30;99.90;-0.70;99918.00;;;;4895946;28;87943;-71
2023/03/15 02:38:55;;;;;;;4.13;0.93;;;-0.30;99.90;-0.70;99926.00;;;;4875815;28;91362;-70
2023/03/15 02:41:30;;;;;;;1.63;0.83;;;-0.40;99.90;-0.70;99927.00;;;;4912098;28;88748;-70
2023/03/15 02:44:07;;;;;;;7.03;1.10;;;-0.30;99.90;-0.80;99917.00;;;;4898682;28;87617;-70
2023/03/15 02:46:35;;;;;;;2.63;1.10;;;-0.40;99.90;-0.70;99921.00;;;;4912632;28;97637;-71
2023/03/15 02:49:01;;;;;;;5.37;0.93;;;-0.30;99.90;-0.70;99921.00;;;;4888635;28;116756;-71
2023/03/15 02:51:28;;;;;;;2.43;1.10;;;-0.20;99.90;-0.70;99929.00;;;;4926997;28;92076;-71
2023/03/15 02:53:54;;;;;;;2.43;1.03;;;-0.40;99.90;-0.80;99917.00;;;;4899684;28;88092;-70
2023/03/15 02:56:20;;;;;;;3.17;1.00;;;-0.40;99.90;-0.80;99928.00;;;;4893789;28;109079;-70
2023/03/15 02:58:47;;;;;;;1.27;0.93;;;-0.40;99.90;-0.80;99932.00;;;;4894171;28;88647;-70
2023/03/15 03:01:14;;;;;;;1.30;1.10;;;-0.50;99.90;-0.80;99933.00;;;;4898902;28;117382;-70
2023/03/15 03:03:41;;;;;;;1.17;1.07;;;-0.40;99.90;-0.90;99937.00;;;;4899246;28;102984;-70
2023/03/15 03:06:10;;;;;;;2.50;1.20;;;-0.50;99.90;-0.90;99927.00;;;;4899887;28;87884;-69
2023/03/15 03:08:36;;;;;;;0.73;0.50;;;-0.50;99.90;-0.90;99943.00;;;;4903149;28;90802;-69
2023/03/15 03:11:02;;;;;;;5.40;0.90;;;-0.70;99.90;-0.90;99944.00;;;;4902343;28;116684;-70
2023/03/15 03:13:28;;;;;;;2.70;0.97;;;-0.60;99.90;-0.90;99950.00;;;;4898814;28;103353;-70
2023/03/15 03:15:57;;;;;;;1.13;1.03;;;-0.60;99.90;-0.90;99937.00;;;;4900524;28;90516;-70
2023/03/15 03:18:28;;;;;;;2.60;1.00;;;-0.60;99.90;-1.00;99950.00;;;;4898036;28;89474;-70
2023/03/15 03:20:58;;;;;;;3.90;1.20;;;-0.50;99.90;-1.00;99948.00;;;;4894593;28;87033;-70
2023/03/15 03:23:27;;;;;;;9.17;1.10;;;-0.60;99.90;-1.10;99958.00;;;;4898416;28;89155;-70
2023/03/15 03:25:55;;;;;;;4.17;1.43;;;-0.60;99.90;-1.10;99947.00;;;;4899135;28;87722;-70
2023/03/15 03:28:31;;;;;;;5.13;1.10;;;-0.70;99.90;-1.10;99954.00;;;;4909316;28;109663;-70
2023/03/15 03:30:58;;;;;;;2.73;1.10;;;-0.90;99.90;-1.10;99961.00;;;;4894597;28;88685;-70
2023/03/15 03:33:23;;;;;;;1.57;0.80;;;-0.70;99.90;-1.10;99958.00;;;;4892880;28;88235;-70
2023/03/15 03:35:49;;;;;;;2.33;1.23;;;-0.80;99.90;-1.20;99967.00;;;;4898920;28;101024;-70
2023/03/15 03:38:15;;;;;;;3.90;1.10;;;-0.70;99.90;-1.20;99972.00;;;;4895069;28;117679;-69
2023/03/15 03:40:41;;;;;;;0.60;0.60;;;-0.80;99.90;-1.20;99988.00;;;;4899618;28;117459;-70
2023/03/15 03:43:08;;;;;;;0.73;0.73;;;-0.80;99.90;-1.20;99980.00;;;;4896299;28;109154;-68
2023/03/15 03:45:34;;;;;;;3.87;1.07;;;-0.70;99.90;-1.20;99982.00;;;;4894442;28;87181;-69
2023/03/15 03:48:00;;;;;;;3.43;1.60;;;-0.80;99.90;-1.30;99986.00;;;;4909596;28;117746;-69
2023/03/15 03:50:26;;;;;;;4.57;1.40;;;-0.80;99.90;-1.30;99992.00;;;;4893942;28;87825;-69
2023/03/15 03:52:51;;;;;;;1.67;1.33;;;-1.30;99.90;-1.30;99985.00;;;;4894219;28;88998;-69
2023/03/15 03:55:17;;;;;;;5.30;1.83;;;-0.80;99.90;-1.20;100004.00;;;;4895759;28;107273;-69
2023/03/15 03:57:43;;;;;;;4.73;2.10;;;-0.80;99.90;-1.20;100001.00;;;;4897709;28;116942;-69
2023/03/15 04:00:13;;;;;;;3.60;1.73;;;-0.90;99.90;-1.20;100007.00;;;;4896948;28;87916;-69
2023/03/15 04:02:42;;;;;;;1.73;1.53;;;-1.50;99.90;-1.20;100005.00;;;;4892015;28;88157;-69
2023/03/15 04:05:10;;;;;;;2.90;1.30;;;-0.80;99.90;-1.20;100012.00;;;;4904447;28;87782;-69
2023/03/15 04:07:37;;;;;;;2.33;1.37;;;-0.10;99.90;-1.10;100020.00;;;;4906400;28;88444;-69
2023/03/15 04:10:03;;;;;;;2.60;1.53;;;-0.70;99.90;-1.10;100023.00;;;;4898930;28;93146;-69
2023/03/15 04:12:29;;;;;;;2.77;1.60;;;-0.80;99.90;-1.10;100015.00;;;;4895293;28;99337;-69
2023/03/15 04:14:54;;;;;;;5.23;1.67;;;-0.70;99.90;-1.10;100015.00;;;;4896815;28;87840;-69
2023/03/15 04:17:20;;;;;;;6.77;1.47;;;-0.70;99.90;-1.10;100027.00;;;;4894761;28;116825;-69
2023/03/15 04:19:46;;;;;;;1.57;1.00;;;-0.70;99.90;-1.10;100023.00;;;;4894807;28;118867;-69
2023/03/15 04:22:14;;;;;;;6.73;1.70;;;-0.80;99.90;-1.00;100032.00;;;;4898028;28;109336;-69
2023/03/15 04:24:40;;;;;;;9.23;1.77;;;-0.70;99.90;-1.00;100028.00;;;;4910959;28;87952;-69
2023/03/15 04:27:06;;;;;;;4.17;1.07;;;-0.70;99.90;-1.00;100037.00;;;;4897052;28;88509;-69
2023/03/15 04:29:32;;;;;;;3.80;1.20;;;-0.60;99.90;-1.10;100038.00;;;;4890498;28;88021;-71
2023/03/15 04:32:01;;;;;;;5.67;1.63;;;-0.70;99.90;-1.10;100035.00;;;;4892431;28;110218;-71
2023/03/15 04:34:28;;;;;;;4.13;1.63;;;-0.60;99.90;-1.10;100043.00;;;;4895550;28;87299;-70
2023/03/15 04:36:54;;;;;;;1.23;0.97;;;-0.70;99.90;-1.10;100051.00;;;;4897845;28;88709;-68
2023/03/15 04:39:20;;;;;;;2.47;1.30;;;-0.70;99.90;-1.10;100050.00;;;;4896837;28;88898;-69
2023/03/15 04:41:46;;;;;;;2.27;1.47;;;-0.60;99.90;-1.10;100049.00;;;;4893638;28;109744;-68
2023/03/15 04:44:15;;;;;;;3.23;1.10;;;-0.60;99.90;-1.10;100050.00;;;;4909088;28;107892;-70
2023/03/15 04:46:41;;;;;;;5.53;1.37;;;-0.70;99.90;-1.10;100054.00;;;;4895207;28;91854;-69
2023/03/15 04:49:07;;;;;;;2.83;1.37;;;-0.30;99.90;-1.10;100052.00;;;;4894294;28;110095;-68
2023/03/15 04:51:33;;;;;;;8.87;1.47;;;-0.70;99.90;-1.10;100062.00;;;;4889673;28;105306;-68
2023/03/15 04:53:59;;;;;;;1.90;1.23;;;-0.70;99.90;-1.10;100057.00;;;;4897785;28;88171;-68
2023/03/15 04:56:26;;;;;;;1.90;0.83;;;-0.70;99.90;-1.10;100057.00;;;;4897466;28;89451;-68
2023/03/15 04:58:51;;;;;;;6.33;0.97;;;-0.40;99.90;-1.10;100065.00;;;;4898187;28;108383;-68
2023/03/15 05:01:27;;;;;;;4.80;1.30;;;-0.70;99.90;-1.10;100070.00;;;;4902473;28;109946;-66
2023/03/15 05:03:53;;;;;;;4.23;1.13;;;-0.70;99.90;-1.00;100077.00;;;;4898146;28;87931;-65
2023/03/15 05:06:19;;;;;;;3.13;1.30;;;-0.70;99.90;-1.00;100064.00;;;;4896286;28;89270;-65
2023/03/15 05:08:45;;;;;;;5.77;1.23;;;-0.60;99.90;-0.90;100069.00;;;;4896293;28;117214;-66
2023/03/15 05:11:11;;;;;;;3.27;1.20;;;-0.60;99.90;-0.90;100068.00;;;;4897468;28;88254;-66
2023/03/15 05:13:37;;;;;;;2.77;1.10;;;-0.50;99.90;-0.90;100077.00;;;;4896904;28;108358;-67
2023/03/15 05:16:03;;;;;;;0.70;0.70;;;-0.60;99.90;-0.90;100085.00;;;;4897345;28;116351;-67
2023/03/15 05:18:28;;;;;;;2.67;1.07;;;-0.50;99.90;-0.90;100084.00;;;;4898107;28;88548;-67
2023/03/15 05:20:54;;;;;;;7.47;2.20;;;-0.60;99.90;-0.90;100086.00;;;;4898639;28;87890;-68
2023/03/15 05:23:22;;;;;;;2.53;1.00;;;-0.50;99.90;-0.90;100101.00;;;;4895539;28;87635;-68
2023/03/15 05:25:54;;;;;;;4.43;1.43;;;-0.70;99.90;-0.90;100090.00;;;;4895129;28;89393;-68
2023/03/15 05:28:24;;;;;;;1.70;0.87;;;-0.60;99.90;-0.90;100101.00;;;;4892698;28;118005;-66
2023/03/15 05:30:51;;;;;;;4.67;1.80;;;-0.60;99.90;-1.00;100105.00;;;;4897428;28;89136;-66
2023/03/15 05:33:18;;;;;;;2.30;1.83;;;-0.60;99.90;-1.00;100113.00;;;;4896896;28;100598;-68
2023/03/15 05:35:44;;;;;;;4.10;1.23;;;-0.60;99.90;-0.90;100112.00;;;;4896420;28;88845;-69
2023/03/15 05:38:14;;;;;;;8.77;1.33;;;-0.60;99.90;-0.90;100113.00;;;;4897033;28;88138;-66
2023/03/15 05:40:43;;;;;;;5.47;1.77;;;-0.60;99.90;-0.90;100122.00;;;;4896409;28;87822;-67
2023/03/15 05:43:09;;;;;;;3.17;1.67;;;-0.50;99.90;-0.90;100118.00;;;;4894976;28;87941;-68
2023/03/15 05:45:36;;;;;;;6.40;1.97;;;-0.50;99.90;-0.90;100120.00;;;;4893959;28;114689;-67
2023/03/15 05:48:02;;;;;;;3.53;1.57;;;-0.50;99.90;-0.90;100125.00;;;;4893095;28;87241;-67
2023/03/15 05:50:28;;;;;;;3.40;1.33;;;-0.50;99.90;-0.80;100129.00;;;;4894984;28;87700;-65
2023/03/15 05:52:55;;;;;;;7.20;1.73;;;-0.50;99.90;-0.80;100136.00;;;;4898543;28;88100;-66
2023/03/15 05:55:22;;;;;;;4.60;1.10;;;-0.40;99.90;-0.70;100138.00;;;;4897525;28;88740;-65
2023/03/15 05:57:48;;;;;;;3.67;1.40;;;-0.30;99.90;-0.60;100154.00;;;;4897350;28;89251;-65
2023/03/15 06:00:15;;;;;;;2.90;1.47;;;-0.30;99.90;-0.50;100152.00;;;;4898064;28;87963;-65
2023/03/15 06:02:45;;;;;;;3.87;1.43;;;-0.20;99.90;-0.40;100144.00;;;;4895029;28;87928;-66
2023/03/15 06:05:11;;;;;;;1.37;1.07;;;0.00;99.90;-0.30;100151.00;;;;4894715;28;105637;-66
2023/03/15 06:07:37;;;;;;;0.73;0.73;;;-0.10;99.90;-0.20;100160.00;;;;4895131;28;100126;-66
2023/03/15 06:10:04;;;;;;;6.93;1.23;;;0.10;99.90;-0.10;100161.00;;;;4891671;28;109823;-65
2023/03/15 06:12:30;;;;;;;4.17;1.10;;;0.30;99.90;0.00;100168.00;;;;4896147;28;87088;-69
2023/03/15 06:14:55;;;;;;;1.00;0.90;;;0.10;99.90;0.20;100174.00;;;;4897677;28;110946;-67
2023/03/15 06:17:21;;;;;;;0.93;0.60;;;-0.30;99.90;0.30;100179.00;;;;4897276;28;87939;-66
2023/03/15 06:19:47;;;;;;;1.47;1.00;;;0.60;99.90;0.40;100173.00;;;;4893179;28;110608;-68
2023/03/15 06:22:12;;;;;;;5.90;1.37;;;0.70;99.90;0.60;100182.00;;;;4891025;28;98918;-66
2023/03/15 06:24:38;;;;;;;0.90;0.80;;;0.90;99.90;0.70;100190.00;;;;4894883;28;118029;-65
2023/03/15 06:27:04;;;;;;;2.03;0.90;;;1.00;99.90;0.80;100198.00;;;;4892747;28;115704;-67
2023/03/15 06:29:30;;;;;;;6.27;2.13;;;1.10;99.90;1.00;100197.00;;;;4896482;28;110045;-67
2023/03/15 06:31:55;;;;;;;2.63;1.80;;;1.70;99.90;1.20;100201.00;;;;4894269;28;94179;-66
2023/03/15 06:34:21;;;;;;;4.80;2.80;;;1.40;99.90;1.30;100195.00;;;;4894247;28;116074;-69
2023/03/15 06:36:48;;;;;;;11.70;3.10;;;1.70;99.90;1.50;100201.00;;;;4893078;28;117016;-68
2023/03/15 06:39:14;;;;;;;5.10;1.77;;;1.70;99.90;1.70;100201.00;;;;4895861;28;88030;-67
2023/03/15 06:41:42;;;;;;;2.83;1.17;;;1.90;99.90;1.90;100212.00;;;;4891327;28;110126;-68
2023/03/15 06:44:09;;;;;;;10.10;1.23;;;2.10;99.90;2.10;100220.00;;;;4912715;28;89481;-70
2023/03/15 06:46:35;;;;;;;2.87;0.97;;;2.20;99.90;2.30;100217.00;;;;4912842;28;88172;-69
2023/03/15 06:49:02;;;;;;;4.03;1.53;;;2.50;99.90;2.50;100221.00;;;;4892890;28;87818;-68
2023/03/15 06:51:28;;;;;;;3.37;1.70;;;3.20;99.90;2.70;100215.00;;;;4896847;28;87824;-66
2023/03/15 06:53:53;;;;;;;1.87;1.00;;;2.90;99.90;2.90;100229.00;;;;4897140;28;109871;-68
2023/03/15 06:56:19;;;;;;;2.10;0.83;;;3.10;99.90;3.10;100226.00;;;;4898519;28;109905;-67
2023/03/15 06:58:45;;;;;;;2.93;1.07;;;3.30;99.90;3.20;100232.00;;;;4896297;28;87739;-67
2023/03/15 07:01:12;;;;;;;1.17;0.90;;;3.40;99.90;3.40;100238.00;;;;4892566;28;107673;-67
2023/03/15 07:03:39;;;;;;;7.00;0.70;;;3.60;99.90;3.60;100236.00;;;;4909755;28;87926;-70
2023/03/15 07:06:05;;;;;;;1.20;0.77;;;3.70;99.90;3.80;100234.00;;;;4897029;28;89417;-69
2023/03/15 07:08:30;;;;;;;6.70;0.97;;;4.00;99.90;4.10;100243.00;;;;4898913;28;109592;-69
2023/03/15 07:10:56;;;;;;;1.13;0.70;;;4.20;99.90;4.30;100245.00;;;;4895944;28;87953;-68
2023/03/15 07:13:22;;;;;;;2.33;1.40;;;4.50;99.90;4.50;100252.00;;;;4899545;28;88167;-68
2023/03/15 07:15:55;;;;;;;1.90;1.10;;;5.50;99.90;4.60;100249.00;;;;4898095;28;116711;-69
2023/03/15 07:18:27;;;;;;;2.37;0.73;;;4.70;99.90;4.60;100256.00;;;;4899446;28;87786;-68
2023/03/15 07:21:01;;;;;;;6.63;1.43;;;4.80;99.90;4.50;100258.00;;;;4908275;28;109227;-70
2023/03/15 07:23:27;;;;;;;1.50;0.90;;;5.70;99.90;4.40;100248.00;;;;4873044;28;88010;-71
2023/03/15 07:25:54;;;;;;;0.60;0.60;;;4.70;99.90;4.60;100257.00;;;;4900354;28;87713;-69
2023/03/15 07:28:21;;;;;;;1.23;0.63;;;4.80;99.90;4.70;100264.00;;;;4897037;28;87922;-70
2023/03/15 07:30:59;;;;;;;5.37;1.17;;;4.90;99.90;4.90;100267.00;;;;4895907;28;87688;-69
2023/03/15 07:33:27;;;;;;;3.67;1.13;;;5.10;99.90;5.10;100271.00;;;;4892204;28;89696;-69
2023/03/15 07:35:53;;;;;;;1.33;0.93;;;5.20;99.90;5.40;100276.00;;;;4892290;28;88878;-69
2023/03/15 07:38:25;;;;;;;2.53;1.20;;;5.50;99.90;5.60;100276.00;;;;4893852;28;90982;-69
2023/03/15 07:40:51;;;;;;;1.50;0.83;;;5.80;99.90;5.80;100278.00;;;;4905548;28;87597;-69
2023/03/15 07:43:18;;;;;;;0.73;0.73;;;6.30;99.90;5.90;100284.00;;;;4898930;28;89126;-72
2023/03/15 07:45:44;;;;;;;2.00;0.60;;;6.20;99.90;5.90;100286.00;;;;4880592;28;89763;-71
2023/03/15 07:48:10;;;;;;;1.70;0.97;;;6.90;99.90;5.80;100282.00;;;;4895686;28;108265;-69
2023/03/15 07:50:36;;;;;;;1.33;0.77;;;6.00;99.90;5.60;100279.00;;;;4898469;28;87120;-70
2023/03/15 07:53:04;;;;;;;5.80;1.37;;;5.90;99.90;5.50;100295.00;;;;4896773;28;109571;-69
2023/03/15 07:55:31;;;;;;;4.07;1.33;;;6.00;99.90;5.40;100296.00;;;;4897289;28;89815;-70
2023/03/15 07:57:57;;;;;;;2.27;0.80;;;6.20;99.90;5.40;100293.00;;;;4895236;28;89039;-69
2023/03/15 08:00:23;;;;;;;2.03;1.07;;;5.60;99.90;5.40;100302.00;;;;4902343;28;102662;-71
2023/03/15 08:02:49;;;;;;;5.13;1.43;;;5.70;99.90;5.40;100303.00;;;;4912619;28;89181;-70
2023/03/15 08:05:17;;;;;;;1.27;1.00;;;5.60;99.90;5.30;100307.00;;;;4900011;28;88074;-71
2023/03/15 08:07:49;;;;;;;4.47;0.70;;;5.60;99.90;5.30;100311.00;;;;4898623;28;87808;-71
2023/03/15 08:10:17;;;;;;;1.80;0.87;;;5.50;99.90;5.30;100311.00;;;;4893353;28;109026;-70
2023/03/15 08:12:43;;;;;;;2.27;1.40;;;5.40;99.90;5.30;100316.00;;;;4897859;28;89689;-68
2023/03/15 08:15:12;;;;;;;1.33;1.20;;;5.50;99.90;5.30;100315.00;;;;4895994;28;87432;-69
2023/03/15 08:17:39;;;;;;;1.90;1.10;;;5.60;99.90;5.40;100335.00;;;;4908639;28;88238;-69
2023/03/15 08:20:09;;;;;;;2.03;0.83;;;6.20;99.90;5.40;100337.00;;;;4895884;28;88015;-67
2023/03/15 08:22:34;;;;;;;1.17;0.60;;;5.50;99.90;5.50;100336.00;;;;4893778;28;89577;-69
2023/03/15 08:25:00;;;;;;;1.77;1.00;;;5.60;99.90;5.60;100330.00;;;;4898420;28;119393;-69
2023/03/15 08:27:57;;;;;;;0.67;0.63;;;6.40;99.90;5.40;100339.00;;;;4877524;28;109890;-69
2023/03/15 08:30:23;;;;;;;2.37;0.93;;;5.60;99.90;5.30;100347.00;;;;4897482;28;108414;-67
2023/03/15 08:32:51;;;;;;;3.10;1.00;;;5.50;99.90;5.20;100347.00;;;;4898227;28;97779;-68
2023/03/15 08:35:19;;;;;;;2.77;1.13;;;5.70;99.90;5.10;100352.00;;;;4898494;28;88891;-68
2023/03/15 08:37:46;;;;;;;0.93;0.60;;;6.00;99.90;5.00;100348.00;;;;4907590;28;87759;-69
2023/03/15 08:40:14;;;;;;;2.50;0.80;;;5.20;99.90;5.00;100353.00;;;;4900345;28;87187;-67
2023/03/15 08:42:40;;;;;;;3.47;1.30;;;5.20;99.90;4.90;100356.00;;;;4898535;28;88113;-69
2023/03/15 08:45:07;;;;;;;0.87;0.80;;;5.00;99.90;4.80;100372.00;;;;4897621;28;88302;-67
2023/03/15 08:47:34;;;;;;;1.53;0.73;;;5.00;99.90;4.80;100356.00;;;;4893551;28;94928;-68
2023/03/15 08:50:05;;;;;;;3.47;0.87;;;4.90;99.90;4.70;100383.00;;;;4896213;28;108146;-69
2023/03/15 08:52:32;;;;;;;1.30;0.70;;;5.00;99.90;4.60;100387.00;;;;4900267;28;97030;-70
2023/03/15 08:54:57;;;;;;;3.30;0.97;;;4.80;99.90;4.40;100391.00;;;;4912305;28;117239;-68
2023/03/15 08:57:27;;;;;;;1.17;0.57;;;4.60;99.90;4.20;100390.00;;;;4895067;28;110699;-71
2023/03/15 08:59:54;;;;;;;0.90;0.90;;;4.50;99.90;4.00;100387.00;;;;4898600;28;87854;-71
2023/03/15 09:02:21;;;;;;;2.43;0.93;;;4.30;99.90;3.80;100397.00;;;;4899214;28;89223;-69
2023/03/15 09:04:47;;;;;;;1.03;0.70;;;4.10;99.90;3.70;100391.00;;;;4901685;28;88439;-71
2023/03/15 09:07:14;;;;;;;2.13;1.10;;;4.10;99.90;3.70;100403.00;;;;4897186;28;109667;-69
2023/03/15 09:09:40;;;;;;;8.97;2.37;;;3.90;99.90;3.60;100413.00;;;;4897270;28;87797;-70
2023/03/15 09:12:07;;;;;;;1.87;1.10;;;4.80;99.90;3.60;100413.00;;;;4899476;28;92095;-70
2023/03/15 09:14:32;;;;;;;0.50;0.50;;;3.80;99.90;3.50;100407.00;;;;4913335;28;89696;-69
2023/03/15 09:16:58;;;;;;;6.33;1.20;;;3.80;99.90;3.50;100407.00;;;;4901370;28;93191;-69
2023/03/15 09:19:24;;;;;;;1.53;0.97;;;3.80;99.90;3.40;100410.00;;;;4897940;28;108879;-69
2023/03/15 09:21:50;;;;;;;3.90;1.00;;;3.70;99.90;3.50;100410.00;;;;4898178;28;116862;-69
2023/03/15 09:24:15;;;;;;;3.03;1.00;;;3.70;99.90;3.50;100409.00;;;;4904531;28;88724;-68
2023/03/15 09:26:41;;;;;;;2.00;0.70;;;3.70;99.90;3.50;100410.00;;;;4899052;28;90062;-68
2023/03/15 09:29:08;;;;;;;3.90;1.13;;;3.70;99.90;3.50;100416.00;;;;4897552;28;109308;-71
2023/03/15 09:31:34;;;;;;;5.00;1.23;;;3.70;99.90;3.50;100420.00;;;;4898200;28;87938;-69
2023/03/15 09:34:00;;;;;;;1.83;1.43;;;3.80;99.90;3.50;100425.00;;;;4905898;28;116605;-69
2023/03/15 09:36:25;;;;;;;8.40;2.23;;;3.70;99.90;3.60;100422.00;;;;4898076;28;108715;-71
2023/03/15 09:38:51;;;;;;;1.30;0.97;;;3.70;99.90;3.60;100427.00;;;;4901722;28;87778;-70
2023/03/15 09:41:40;;;;;;;1.53;1.00;;;3.70;99.90;3.60;100430.00;;;;4899582;28;117179;-70
2023/03/15 09:44:32;;;;;;;3.97;1.23;;;3.80;99.90;3.50;100425.00;;;;4898165;28;88754;-71
2023/03/15 09:47:45;;;;;;;0.77;0.57;;;3.90;99.90;3.50;100430.00;;;;4894392;28;87833;-70
2023/03/15 09:51:15;;;;;;;1.50;1.00;;;3.80;99.90;3.40;100441.00;;;;4885780;28;87983;-71
2023/03/15 09:53:57;;;;;;;1.17;1.00;;;3.70;99.90;3.40;100444.00;;;;4874999;28;88082;-70
2023/03/15 09:56:44;;;;;;;1.43;1.20;;;3.70;99.90;3.40;100435.00;;;;4897503;28;99909;-69
2023/03/15 09:59:11;;;;;;;2.20;1.67;;;3.70;99.90;3.40;100435.00;;;;4899245;28;88029;-71
2023/03/15 10:01:40;;;;;;;5.77;1.90;;;3.60;99.90;3.40;100447.00;;;;4897467;28;87925;-72
2023/03/15 10:04:28;;;;;;;3.87;1.40;;;3.50;99.90;3.30;100450.00;;;;4900164;28;94280;-75
2023/03/15 10:06:58;;;;;;;1.73;0.80;;;3.50;99.90;3.40;100441.00;;;;4896300;28;107350;-72
2023/03/15 10:09:31;;;;;;;11.90;2.23;;;3.70;99.90;3.40;100446.00;;;;4900614;28;93936;-76
2023/03/15 10:12:08;;;;;;;5.13;1.13;;;4.40;99.90;3.40;100443.00;;;;4881133;28;88091;-75
2023/03/15 10:15:05;;;;;;;2.30;0.97;;;3.50;99.90;3.40;100464.00;;;;4911402;28;109713;-73
2023/03/15 10:18:10;;;;;;;5.13;1.57;;;3.60;99.90;3.50;100447.00;;;;4876257;28;87989;-74
2023/03/15 10:20:47;;;;;;;1.90;1.23;;;3.60;99.90;3.60;100457.00;;;;4898614;28;87728;-71
2023/03/15 10:23:27;;;;;;;1.80;0.93;;;3.80;99.90;3.70;100464.00;;;;4878775;28;103782;-73
2023/03/15 10:25:53;;;;;;;2.30;1.60;;;3.90;99.90;3.70;100458.00;;;;4892923;28;87829;-71
2023/03/15 10:28:30;;;;;;;2.20;0.93;;;3.80;99.90;3.70;100463.00;;;;4919058;28;116428;-71
2023/03/15 10:31:00;;;;;;;1.23;1.13;;;3.90;99.90;3.70;100469.00;;;;4892862;28;88906;-69
2023/03/15 10:33:30;;;;;;;2.80;1.23;;;3.90;99.90;3.80;100467.00;;;;4899532;28;88174;-69
2023/03/15 10:35:57;;;;;;;3.90;1.33;;;4.90;99.90;4.00;100466.00;;;;4883740;28;90192;-71
2023/03/15 10:38:24;;;;;;;2.67;1.27;;;4.10;99.90;4.10;100462.00;;;;4899068;28;89342;-71
2023/03/15 10:40:53;;;;;;;5.83;1.80;;;4.20;99.90;4.30;100469.00;;;;4896102;28;87935;-67
2023/03/15 10:43:35;;;;;;;1.17;1.07;;;4.40;99.90;4.60;100459.00;;;;4893583;28;102054;-68
2023/03/15 10:46:32;;;;;;;1.50;0.93;;;4.60;99.90;4.70;100459.00;;;;4893535;28;89390;-68
2023/03/15 10:48:59;;;;;;;2.83;1.33;;;4.80;99.90;4.80;100464.00;;;;4902839;28;89012;-68
2023/03/15 10:51:33;;;;;;;3.93;1.33;;;5.00;99.90;4.90;100459.00;;;;4900426;28;87916;-70
2023/03/15 10:54:17;;;;;;;1.67;1.20;;;5.10;99.90;4.90;100453.00;;;;4915200;28;103563;-68
2023/03/15 10:56:49;;;;;;;3.80;1.50;;;5.10;99.90;5.00;100468.00;;;;4896225;28;92138;-68
2023/03/15 10:59:23;;;;;;;1.87;1.67;;;5.20;99.90;5.10;100470.00;;;;4897902;28;93744;-69
2023/03/15 11:01:52;;;;;;;1.73;1.63;;;5.20;99.90;5.30;100477.00;;;;4895672;28;88220;-70
2023/03/15 11:04:26;;;;;;;1.63;1.20;;;5.30;99.90;5.40;100470.00;;;;4900996;28;88135;-66
2023/03/15 11:06:57;;;;;;;1.27;1.17;;;5.60;99.90;5.40;100473.00;;;;4907151;28;90780;-68